sensor_id;sensor_type;location;lat;lon;timestamp;temperature;humidity
71627;DHT22;59475;52.464;13.590;2024-02-21T00:00:15;7.62;91.17
71627;DHT22;59475;52.464;13.590;2024-02-21T00:02:41;7.64;90.98
71627;DHT22;59475;52.464;13.590;2024-02-21T00:05:06;7.65;91.11
71627;DHT22;59475;52.464;13.590;2024-02-21T00:07:32;7.68;90.88
71627;DHT22;59475;52.464;13.590;2024-02-21T00:09:57;7.68;90.77
71627;DHT22;59475;52.464;13.590;2024-02-21T00:12:23;7.64;90.82
71627;DHT22;59475;52.464;13.590;2024-02-21T00:14:48;7.71;90.51
71627;DHT22;59475;52.464;13.590;2024-02-21T00:17:13;7.72;90.39
71627;DHT22;59475;52.464;13.590;2024-02-21T00:19:39;7.79;90.41
71627;DHT22;59475;52.464;13.590;2024-02-21T00:22:04;7.72;90.52
71627;DHT22;59475;52.464;13.590;2024-02-21T00:24:30;7.71;90.51
71627;DHT22;59475;52.464;13.590;2024-02-21T00:26:55;7.68;90.55
71627;DHT22;59475;52.464;13.590;2024-02-21T00:29:20;7.71;90.38
71627;DHT22;59475;52.464;13.590;2024-02-21T00:31:46;7.74;90.26
71627;DHT22;59475;52.464;13.590;2024-02-21T00:34:11;7.75;90.05
71627;DHT22;59475;52.464;13.590;2024-02-21T00:36:38;7.74;90.09
71627;DHT22;59475;52.464;13.590;2024-02-21T00:39:03;7.71;90.22
71627;DHT22;59475;52.464;13.590;2024-02-21T00:41:29;7.78;89.88
71627;DHT22;59475;52.464;13.590;2024-02-21T00:43:54;7.76;89.93
71627;DHT22;59475;52.464;13.590;2024-02-21T00:46:20;7.75;90.19
71627;DHT22;59475;52.464;13.590;2024-02-21T00:48:45;7.74;90.39
71627;DHT22;59475;52.464;13.590;2024-02-21T00:51:10;7.75;90.36
71627;DHT22;59475;52.464;13.590;2024-02-21T00:53:36;7.67;90.77
71627;DHT22;59475;52.464;13.590;2024-02-21T00:56:06;7.69;90.61
71627;DHT22;59475;52.464;13.590;2024-02-21T00:58:32;7.69;90.49
71627;DHT22;59475;52.464;13.590;2024-02-21T01:00:57;7.67;90.64
71627;DHT22;59475;52.464;13.590;2024-02-21T01:03:22;7.62;90.77
71627;DHT22;59475;52.464;13.590;2024-02-21T01:05:48;7.67;90.75
71627;DHT22;59475;52.464;13.590;2024-02-21T01:08:13;7.64;90.72
71627;DHT22;59475;52.464;13.590;2024-02-21T01:10:39;7.59;90.78
71627;DHT22;59475;52.464;13.590;2024-02-21T01:13:04;7.61;90.66
71627;DHT22;59475;52.464;13.590;2024-02-21T01:15:29;7.62;90.85
71627;DHT22;59475;52.464;13.590;2024-02-21T01:17:55;7.61;90.93
71627;DHT22;59475;52.464;13.590;2024-02-21T01:20:21;7.61;90.78
71627;DHT22;59475;52.464;13.590;2024-02-21T01:22:46;7.67;90.47
71627;DHT22;59475;52.464;13.590;2024-02-21T01:25:12;7.65;90.33
71627;DHT22;59475;52.464;13.590;2024-02-21T01:27:37;7.65;90.14
71627;DHT22;59475;52.464;13.590;2024-02-21T01:30:03;7.67;90.43
71627;DHT22;59475;52.464;13.590;2024-02-21T01:32:29;7.68;90.28
71627;DHT22;59475;52.464;13.590;2024-02-21T01:34:54;7.67;90.04
71627;DHT22;59475;52.464;13.590;2024-02-21T01:37:19;7.68;90.19
71627;DHT22;59475;52.464;13.590;2024-02-21T01:39:45;7.69;89.78
71627;DHT22;59475;52.464;13.590;2024-02-21T01:42:10;7.69;89.90
71627;DHT22;59475;52.464;13.590;2024-02-21T01:44:35;7.75;89.82
71627;DHT22;59475;52.464;13.590;2024-02-21T01:47:03;7.81;89.59
71627;DHT22;59475;52.464;13.590;2024-02-21T01:49:29;7.79;89.31
71627;DHT22;59475;52.464;13.590;2024-02-21T01:51:55;7.81;89.22
71627;DHT22;59475;52.464;13.590;2024-02-21T01:54:20;7.86;89.08
71627;DHT22;59475;52.464;13.590;2024-02-21T01:56:46;7.82;89.06
71627;DHT22;59475;52.464;13.590;2024-02-21T01:59:12;7.88;89.08
71627;DHT22;59475;52.464;13.590;2024-02-21T02:01:38;7.90;89.01
71627;DHT22;59475;52.464;13.590;2024-02-21T02:04:04;7.89;88.76
71627;DHT22;59475;52.464;13.590;2024-02-21T02:06:30;7.93;88.51
71627;DHT22;59475;52.464;13.590;2024-02-21T02:08:56;7.93;88.54
71627;DHT22;59475;52.464;13.590;2024-02-21T02:11:22;7.95;88.39
71627;DHT22;59475;52.464;13.590;2024-02-21T02:13:47;7.93;88.54
71627;DHT22;59475;52.464;13.590;2024-02-21T02:16:12;7.89;88.49
71627;DHT22;59475;52.464;13.590;2024-02-21T02:18:38;7.93;88.38
71627;DHT22;59475;52.464;13.590;2024-02-21T02:21:10;7.92;88.25
71627;DHT22;59475;52.464;13.590;2024-02-21T02:23:35;7.96;88.50
71627;DHT22;59475;52.464;13.590;2024-02-21T02:26:01;7.90;88.43
71627;DHT22;59475;52.464;13.590;2024-02-21T02:28:26;7.90;88.56
71627;DHT22;59475;52.464;13.590;2024-02-21T02:30:52;7.92;88.57
71627;DHT22;59475;52.464;13.590;2024-02-21T02:33:18;7.93;89.06
71627;DHT22;59475;52.464;13.590;2024-02-21T02:35:43;7.86;89.68
71627;DHT22;59475;52.464;13.590;2024-02-21T02:38:09;7.81;90.36
71627;DHT22;59475;52.464;13.590;2024-02-21T02:40:35;7.76;91.23
71627;DHT22;59475;52.464;13.590;2024-02-21T02:43:00;7.74;91.54
71627;DHT22;59475;52.464;13.590;2024-02-21T02:45:26;7.68;92.17
71627;DHT22;59475;52.464;13.590;2024-02-21T02:47:53;7.59;92.41
71627;DHT22;59475;52.464;13.590;2024-02-21T02:50:22;7.61;93.19
71627;DHT22;59475;52.464;13.590;2024-02-21T02:52:48;7.51;93.65
71627;DHT22;59475;52.464;13.590;2024-02-21T02:55:13;7.46;94.45
71627;DHT22;59475;52.464;13.590;2024-02-21T02:57:39;7.47;95.06
71627;DHT22;59475;52.464;13.590;2024-02-21T03:00:07;7.43;94.77
71627;DHT22;59475;52.464;13.590;2024-02-21T03:02:33;7.37;95.62
71627;DHT22;59475;52.464;13.590;2024-02-21T03:04:58;7.31;95.64
71627;DHT22;59475;52.464;13.590;2024-02-21T03:07:25;7.31;95.94
71627;DHT22;59475;52.464;13.590;2024-02-21T03:09:50;7.27;96.15
71627;DHT22;59475;52.464;13.590;2024-02-21T03:12:16;7.30;95.99
71627;DHT22;59475;52.464;13.590;2024-02-21T03:14:49;7.27;96.05
71627;DHT22;59475;52.464;13.590;2024-02-21T03:17:15;7.26;96.17
71627;DHT22;59475;52.464;13.590;2024-02-21T03:19:40;7.26;96.16
71627;DHT22;59475;52.464;13.590;2024-02-21T03:22:05;7.24;96.33
71627;DHT22;59475;52.464;13.590;2024-02-21T03:24:32;7.30;96.11
71627;DHT22;59475;52.464;13.590;2024-02-21T03:26:57;7.26;96.07
71627;DHT22;59475;52.464;13.590;2024-02-21T03:29:24;7.31;96.31
71627;DHT22;59475;52.464;13.590;2024-02-21T03:31:50;7.32;96.25
71627;DHT22;59475;52.464;13.590;2024-02-21T03:34:15;7.27;96.52
71627;DHT22;59475;52.464;13.590;2024-02-21T03:36:40;7.27;96.54
71627;DHT22;59475;52.464;13.590;2024-02-21T03:39:06;7.27;96.75
71627;DHT22;59475;52.464;13.590;2024-02-21T03:41:33;7.28;97.01
71627;DHT22;59475;52.464;13.590;2024-02-21T03:43:58;7.24;97.08
71627;DHT22;59475;52.464;13.590;2024-02-21T03:46:24;7.27;97.30
71627;DHT22;59475;52.464;13.590;2024-02-21T03:48:50;7.24;97.57
71627;DHT22;59475;52.464;13.590;2024-02-21T03:51:15;7.21;97.76
71627;DHT22;59475;52.464;13.590;2024-02-21T03:53:41;7.17;98.19
71627;DHT22;59475;52.464;13.590;2024-02-21T03:56:06;7.17;98.13
71627;DHT22;59475;52.464;13.590;2024-02-21T03:58:32;7.19;98.42
71627;DHT22;59475;52.464;13.590;2024-02-21T04:01:01;7.19;98.60
71627;DHT22;59475;52.464;13.590;2024-02-21T04:03:27;7.14;98.75
71627;DHT22;59475;52.464;13.590;2024-02-21T04:05:53;7.12;98.80
71627;DHT22;59475;52.464;13.590;2024-02-21T04:08:18;7.12;99.09
71627;DHT22;59475;52.464;13.590;2024-02-21T04:10:44;7.13;98.93
71627;DHT22;59475;52.464;13.590;2024-02-21T04:13:09;7.09;98.90
71627;DHT22;59475;52.464;13.590;2024-02-21T04:15:35;7.10;99.02
71627;DHT22;59475;52.464;13.590;2024-02-21T04:18:01;7.09;99.33
71627;DHT22;59475;52.464;13.590;2024-02-21T04:20:26;7.09;99.18
71627;DHT22;59475;52.464;13.590;2024-02-21T04:22:52;7.06;99.38
71627;DHT22;59475;52.464;13.590;2024-02-21T04:25:17;7.09;99.43
71627;DHT22;59475;52.464;13.590;2024-02-21T04:27:43;7.13;99.34
71627;DHT22;59475;52.464;13.590;2024-02-21T04:30:09;7.12;98.91
71627;DHT22;59475;52.464;13.590;2024-02-21T04:32:35;7.10;98.93
71627;DHT22;59475;52.464;13.590;2024-02-21T04:35:00;7.07;99.14
71627;DHT22;59475;52.464;13.590;2024-02-21T04:37:25;7.06;99.38
71627;DHT22;59475;52.464;13.590;2024-02-21T04:39:51;7.06;99.29
71627;DHT22;59475;52.464;13.590;2024-02-21T04:42:17;7.04;99.17
71627;DHT22;59475;52.464;13.590;2024-02-21T04:44:42;7.02;99.35
71627;DHT22;59475;52.464;13.590;2024-02-21T04:47:08;7.03;99.28
71627;DHT22;59475;52.464;13.590;2024-02-21T04:49:34;7.02;99.35
71627;DHT22;59475;52.464;13.590;2024-02-21T04:51:59;6.97;99.43
71627;DHT22;59475;52.464;13.590;2024-02-21T04:54:25;7.02;99.41
71627;DHT22;59475;52.464;13.590;2024-02-21T04:56:50;7.00;99.26
71627;DHT22;59475;52.464;13.590;2024-02-21T04:59:16;6.99;99.33
71627;DHT22;59475;52.464;13.590;2024-02-21T05:01:42;6.99;99.15
71627;DHT22;59475;52.464;13.590;2024-02-21T05:04:07;7.03;99.26
71627;DHT22;59475;52.464;13.590;2024-02-21T05:06:37;7.03;99.20
71627;DHT22;59475;52.464;13.590;2024-02-21T05:09:03;7.04;99.27
71627;DHT22;59475;52.464;13.590;2024-02-21T05:11:30;7.02;98.99
71627;DHT22;59475;52.464;13.590;2024-02-21T05:13:55;7.03;99.10
71627;DHT22;59475;52.464;13.590;2024-02-21T05:16:20;7.02;99.22
71627;DHT22;59475;52.464;13.590;2024-02-21T05:18:45;7.00;99.22
71627;DHT22;59475;52.464;13.590;2024-02-21T05:21:11;7.02;99.09
71627;DHT22;59475;52.464;13.590;2024-02-21T05:23:37;6.99;99.37
71627;DHT22;59475;52.464;13.590;2024-02-21T05:26:05;7.00;99.20
71627;DHT22;59475;52.464;13.590;2024-02-21T05:28:30;7.04;99.33
71627;DHT22;59475;52.464;13.590;2024-02-21T05:30:56;7.06;98.80
71627;DHT22;59475;52.464;13.590;2024-02-21T05:33:21;7.06;98.84
71627;DHT22;59475;52.464;13.590;2024-02-21T05:35:47;7.06;98.79
71627;DHT22;59475;52.464;13.590;2024-02-21T05:38:14;7.09;98.84
71627;DHT22;59475;52.464;13.590;2024-02-21T05:40:39;7.07;98.79
71627;DHT22;59475;52.464;13.590;2024-02-21T05:43:04;7.12;98.51
71627;DHT22;59475;52.464;13.590;2024-02-21T05:45:30;7.12;98.60
71627;DHT22;59475;52.464;13.590;2024-02-21T05:47:55;7.10;98.26
71627;DHT22;59475;52.464;13.590;2024-02-21T05:50:22;7.16;98.35
71627;DHT22;59475;52.464;13.590;2024-02-21T05:52:51;7.13;98.45
71627;DHT22;59475;52.464;13.590;2024-02-21T05:55:16;7.17;98.25
71627;DHT22;59475;52.464;13.590;2024-02-21T05:57:42;7.17;98.28
71627;DHT22;59475;52.464;13.590;2024-02-21T06:00:07;7.19;98.19
71627;DHT22;59475;52.464;13.590;2024-02-21T06:02:33;7.20;98.09
71627;DHT22;59475;52.464;13.590;2024-02-21T06:04:58;7.16;98.32
71627;DHT22;59475;52.464;13.590;2024-02-21T06:07:24;7.21;98.10
71627;DHT22;59475;52.464;13.590;2024-02-21T06:09:49;7.20;98.15
71627;DHT22;59475;52.464;13.590;2024-02-21T06:12:14;7.21;97.98
71627;DHT22;59475;52.464;13.590;2024-02-21T06:14:40;7.21;97.96
71627;DHT22;59475;52.464;13.590;2024-02-21T06:17:05;7.20;98.07
71627;DHT22;59475;52.464;13.590;2024-02-21T06:19:30;7.19;98.01
71627;DHT22;59475;52.464;13.590;2024-02-21T06:21:56;7.17;98.02
71627;DHT22;59475;52.464;13.590;2024-02-21T06:24:21;7.20;98.06
71627;DHT22;59475;52.464;13.590;2024-02-21T06:26:47;7.21;97.75
71627;DHT22;59475;52.464;13.590;2024-02-21T06:29:12;7.20;97.78
71627;DHT22;59475;52.464;13.590;2024-02-21T06:31:39;7.21;97.81
71627;DHT22;59475;52.464;13.590;2024-02-21T06:34:05;7.20;97.74
71627;DHT22;59475;52.464;13.590;2024-02-21T06:36:30;7.24;97.93
71627;DHT22;59475;52.464;13.590;2024-02-21T06:38:56;7.23;97.90
71627;DHT22;59475;52.464;13.590;2024-02-21T06:41:21;7.24;97.90
71627;DHT22;59475;52.464;13.590;2024-02-21T06:43:47;7.24;97.57
71627;DHT22;59475;52.464;13.590;2024-02-21T06:46:26;7.24;97.79
71627;DHT22;59475;52.464;13.590;2024-02-21T06:48:52;7.24;97.83
71627;DHT22;59475;52.464;13.590;2024-02-21T06:51:18;7.30;97.78
71627;DHT22;59475;52.464;13.590;2024-02-21T06:53:43;7.28;97.55
71627;DHT22;59475;52.464;13.590;2024-02-21T06:56:09;7.30;97.55
71627;DHT22;59475;52.464;13.590;2024-02-21T06:58:35;7.28;97.70
71627;DHT22;59475;52.464;13.590;2024-02-21T07:01:01;7.32;97.53
71627;DHT22;59475;52.464;13.590;2024-02-21T07:03:27;7.34;97.27
71627;DHT22;59475;52.464;13.590;2024-02-21T07:05:52;7.34;97.33
71627;DHT22;59475;52.464;13.590;2024-02-21T07:08:17;7.35;97.26
71627;DHT22;59475;52.464;13.590;2024-02-21T07:10:43;7.35;97.37
71627;DHT22;59475;52.464;13.590;2024-02-21T07:13:08;7.38;97.16
71627;DHT22;59475;52.464;13.590;2024-02-21T07:15:34;7.35;97.40
71627;DHT22;59475;52.464;13.590;2024-02-21T07:17:59;7.40;97.17
71627;DHT22;59475;52.464;13.590;2024-02-21T07:20:24;7.41;96.97
71627;DHT22;59475;52.464;13.590;2024-02-21T07:22:50;7.43;97.09
71627;DHT22;59475;52.464;13.590;2024-02-21T07:25:15;7.43;96.82
71627;DHT22;59475;52.464;13.590;2024-02-21T07:27:41;7.47;96.73
71627;DHT22;59475;52.464;13.590;2024-02-21T07:30:07;7.46;96.62
71627;DHT22;59475;52.464;13.590;2024-02-21T07:32:33;7.46;96.65
71627;DHT22;59475;52.464;13.590;2024-02-21T07:34:58;7.50;96.43
71627;DHT22;59475;52.464;13.590;2024-02-21T07:37:23;7.47;96.51
71627;DHT22;59475;52.464;13.590;2024-02-21T07:39:49;7.47;96.71
71627;DHT22;59475;52.464;13.590;2024-02-21T07:42:14;7.51;96.30
71627;DHT22;59475;52.464;13.590;2024-02-21T07:44:40;7.52;96.14
71627;DHT22;59475;52.464;13.590;2024-02-21T07:47:06;7.54;96.24
71627;DHT22;59475;52.464;13.590;2024-02-21T07:49:32;7.59;95.84
71627;DHT22;59475;52.464;13.590;2024-02-21T07:52:00;7.61;95.79
71627;DHT22;59475;52.464;13.590;2024-02-21T07:54:26;7.64;95.63
71627;DHT22;59475;52.464;13.590;2024-02-21T07:56:51;7.61;95.63
71627;DHT22;59475;52.464;13.590;2024-02-21T07:59:16;7.65;95.34
71627;DHT22;59475;52.464;13.590;2024-02-21T08:01:42;7.71;95.24
71627;DHT22;59475;52.464;13.590;2024-02-21T08:04:08;7.69;95.08
71627;DHT22;59475;52.464;13.590;2024-02-21T08:06:33;7.71;95.28
71627;DHT22;59475;52.464;13.590;2024-02-21T08:08:59;7.75;94.71
71627;DHT22;59475;52.464;13.590;2024-02-21T08:11:25;7.75;94.62
71627;DHT22;59475;52.464;13.590;2024-02-21T08:13:51;7.78;94.56
71627;DHT22;59475;52.464;13.590;2024-02-21T08:16:16;7.82;94.23
71627;DHT22;59475;52.464;13.590;2024-02-21T08:18:44;7.86;93.93
71627;DHT22;59475;52.464;13.590;2024-02-21T08:21:09;7.86;94.26
71627;DHT22;59475;52.464;13.590;2024-02-21T08:23:34;7.89;93.93
71627;DHT22;59475;52.464;13.590;2024-02-21T08:26:03;7.96;93.68
71627;DHT22;59475;52.464;13.590;2024-02-21T08:28:28;7.95;93.79
71627;DHT22;59475;52.464;13.590;2024-02-21T08:30:53;8.00;93.20
71627;DHT22;59475;52.464;13.590;2024-02-21T08:33:19;8.10;92.60
71627;DHT22;59475;52.464;13.590;2024-02-21T08:35:49;8.09;92.26
71627;DHT22;59475;52.464;13.590;2024-02-21T08:38:15;8.13;92.70
71627;DHT22;59475;52.464;13.590;2024-02-21T08:40:40;8.22;92.09
71627;DHT22;59475;52.464;13.590;2024-02-21T08:43:05;8.20;92.22
71627;DHT22;59475;52.464;13.590;2024-02-21T08:45:31;8.24;92.00
71627;DHT22;59475;52.464;13.590;2024-02-21T08:47:56;8.34;91.47
71627;DHT22;59475;52.464;13.590;2024-02-21T08:50:21;8.34;91.05
71627;DHT22;59475;52.464;13.590;2024-02-21T08:52:47;8.44;91.10
71627;DHT22;59475;52.464;13.590;2024-02-21T08:55:12;8.50;90.78
71627;DHT22;59475;52.464;13.590;2024-02-21T08:57:37;8.58;90.99
71627;DHT22;59475;52.464;13.590;2024-02-21T09:00:06;8.60;91.08
71627;DHT22;59475;52.464;13.590;2024-02-21T09:02:40;8.67;90.44
71627;DHT22;59475;52.464;13.590;2024-02-21T09:05:06;8.73;90.37
71627;DHT22;59475;52.464;13.590;2024-02-21T09:07:31;8.73;89.94
71627;DHT22;59475;52.464;13.590;2024-02-21T09:09:57;8.81;90.37
71627;DHT22;59475;52.464;13.590;2024-02-21T09:12:22;8.79;89.61
71627;DHT22;59475;52.464;13.590;2024-02-21T09:14:48;8.91;89.74
71627;DHT22;59475;52.464;13.590;2024-02-21T09:17:16;9.00;89.55
71627;DHT22;59475;52.464;13.590;2024-02-21T09:19:42;9.02;89.39
71627;DHT22;59475;52.464;13.590;2024-02-21T09:22:07;9.08;89.05
71627;DHT22;59475;52.464;13.590;2024-02-21T09:24:33;9.08;88.91
71627;DHT22;59475;52.464;13.590;2024-02-21T09:26:58;9.09;89.18
71627;DHT22;59475;52.464;13.590;2024-02-21T09:29:24;9.06;88.87
71627;DHT22;59475;52.464;13.590;2024-02-21T09:31:49;9.10;88.94
71627;DHT22;59475;52.464;13.590;2024-02-21T09:34:14;9.19;89.09
71627;DHT22;59475;52.464;13.590;2024-02-21T09:36:40;9.22;88.84
71627;DHT22;59475;52.464;13.590;2024-02-21T09:39:06;9.30;88.73
71627;DHT22;59475;52.464;13.590;2024-02-21T09:41:33;9.47;88.38
71627;DHT22;59475;52.464;13.590;2024-02-21T09:44:01;9.51;87.70
71627;DHT22;59475;52.464;13.590;2024-02-21T09:46:46;9.58;87.35
71627;DHT22;59475;52.464;13.590;2024-02-21T09:49:31;9.59;87.39
71627;DHT22;59475;52.464;13.590;2024-02-21T09:52:02;9.62;87.00
71627;DHT22;59475;52.464;13.590;2024-02-21T09:54:28;9.65;86.96
71627;DHT22;59475;52.464;13.590;2024-02-21T09:56:55;9.70;86.98
71627;DHT22;59475;52.464;13.590;2024-02-21T09:59:20;9.67;86.72
71627;DHT22;59475;52.464;13.590;2024-02-21T10:01:46;9.68;86.85
71627;DHT22;59475;52.464;13.590;2024-02-21T10:04:15;9.74;86.82
71627;DHT22;59475;52.464;13.590;2024-02-21T10:06:41;9.74;86.83
71627;DHT22;59475;52.464;13.590;2024-02-21T10:09:06;9.73;86.67
71627;DHT22;59475;52.464;13.590;2024-02-21T10:11:32;9.75;86.56
71627;DHT22;59475;52.464;13.590;2024-02-21T10:14:05;9.77;86.30
71627;DHT22;59475;52.464;13.590;2024-02-21T10:16:30;9.81;86.51
71627;DHT22;59475;52.464;13.590;2024-02-21T10:18:56;9.85;86.58
71627;DHT22;59475;52.464;13.590;2024-02-21T10:21:21;9.84;86.38
71627;DHT22;59475;52.464;13.590;2024-02-21T10:23:49;9.91;86.19
71627;DHT22;59475;52.464;13.590;2024-02-21T10:26:15;9.93;86.47
71627;DHT22;59475;52.464;13.590;2024-02-21T10:28:41;10.05;86.02
71627;DHT22;59475;52.464;13.590;2024-02-21T10:31:27;10.14;85.79
71627;DHT22;59475;52.464;13.590;2024-02-21T10:34:01;10.30;85.51
71627;DHT22;59475;52.464;13.590;2024-02-21T10:36:30;10.40;84.65
71627;DHT22;59475;52.464;13.590;2024-02-21T10:38:56;10.37;84.72
71627;DHT22;59475;52.464;13.590;2024-02-21T10:41:23;10.34;84.33
71627;DHT22;59475;52.464;13.590;2024-02-21T10:43:53;10.30;84.39
71627;DHT22;59475;52.464;13.590;2024-02-21T10:46:20;10.24;84.37
71627;DHT22;59475;52.464;13.590;2024-02-21T10:48:47;10.20;84.63
71627;DHT22;59475;52.464;13.590;2024-02-21T10:51:16;10.23;84.51
71627;DHT22;59475;52.464;13.590;2024-02-21T10:54:16;10.24;84.80
71627;DHT22;59475;52.464;13.590;2024-02-21T10:56:47;10.32;84.88
71627;DHT22;59475;52.464;13.590;2024-02-21T10:59:15;10.36;84.58
71627;DHT22;59475;52.464;13.590;2024-02-21T11:01:42;10.39;84.24
71627;DHT22;59475;52.464;13.590;2024-02-21T11:04:08;10.36;84.32
71627;DHT22;59475;52.464;13.590;2024-02-21T11:06:35;10.43;84.46
71627;DHT22;59475;52.464;13.590;2024-02-21T11:09:06;10.53;84.12
71627;DHT22;59475;52.464;13.590;2024-02-21T11:11:38;10.53;83.90
71627;DHT22;59475;52.464;13.590;2024-02-21T11:14:08;10.58;84.35
71627;DHT22;59475;52.464;13.590;2024-02-21T11:16:41;10.72;84.24
71627;DHT22;59475;52.464;13.590;2024-02-21T11:19:08;10.71;83.62
71627;DHT22;59475;52.464;13.590;2024-02-21T11:21:37;10.77;84.37
71627;DHT22;59475;52.464;13.590;2024-02-21T11:24:04;10.87;83.52
71627;DHT22;59475;52.464;13.590;2024-02-21T11:26:30;11.01;83.27
71627;DHT22;59475;52.464;13.590;2024-02-21T11:29:03;10.96;83.26
71627;DHT22;59475;52.464;13.590;2024-02-21T11:31:43;11.11;83.75
71627;DHT22;59475;52.464;13.590;2024-02-21T11:34:12;11.22;83.40
71627;DHT22;59475;52.464;13.590;2024-02-21T11:36:51;11.40;83.27
71627;DHT22;59475;52.464;13.590;2024-02-21T11:39:24;11.47;81.51
71627;DHT22;59475;52.464;13.590;2024-02-21T11:42:19;11.49;81.28
71627;DHT22;59475;52.464;13.590;2024-02-21T11:44:45;11.73;81.02
71627;DHT22;59475;52.464;13.590;2024-02-21T11:47:10;11.59;80.49
71627;DHT22;59475;52.464;13.590;2024-02-21T11:49:38;11.43;80.58
71627;DHT22;59475;52.464;13.590;2024-02-21T11:52:04;11.42;80.79
71627;DHT22;59475;52.464;13.590;2024-02-21T11:54:31;11.36;81.32
71627;DHT22;59475;52.464;13.590;2024-02-21T11:56:56;11.42;80.95
71627;DHT22;59475;52.464;13.590;2024-02-21T11:59:21;11.49;80.62
71627;DHT22;59475;52.464;13.590;2024-02-21T12:01:48;11.63;80.40
71627;DHT22;59475;52.464;13.590;2024-02-21T12:04:14;11.64;79.79
71627;DHT22;59475;52.464;13.590;2024-02-21T12:06:43;11.67;79.76
71627;DHT22;59475;52.464;13.590;2024-02-21T12:09:08;11.91;79.17
71627;DHT22;59475;52.464;13.590;2024-02-21T12:11:36;11.92;78.82
71627;DHT22;59475;52.464;13.590;2024-02-21T12:14:03;11.95;78.35
71627;DHT22;59475;52.464;13.590;2024-02-21T12:16:33;12.14;78.79
71627;DHT22;59475;52.464;13.590;2024-02-21T12:19:00;12.22;77.94
71627;DHT22;59475;52.464;13.590;2024-02-21T12:21:34;12.12;77.14
71627;DHT22;59475;52.464;13.590;2024-02-21T12:24:15;12.24;77.04
71627;DHT22;59475;52.464;13.590;2024-02-21T12:26:41;12.18;76.80
71627;DHT22;59475;52.464;13.590;2024-02-21T12:29:06;12.21;77.28
71627;DHT22;59475;52.464;13.590;2024-02-21T12:31:37;12.30;77.31
71627;DHT22;59475;52.464;13.590;2024-02-21T12:34:03;12.59;76.62
71627;DHT22;59475;52.464;13.590;2024-02-21T12:36:30;12.85;75.42
71627;DHT22;59475;52.464;13.590;2024-02-21T12:38:55;13.04;74.84
71627;DHT22;59475;52.464;13.590;2024-02-21T12:41:20;13.04;74.64
71627;DHT22;59475;52.464;13.590;2024-02-21T12:43:46;13.01;75.05
71627;DHT22;59475;52.464;13.590;2024-02-21T12:46:12;12.97;75.05
71627;DHT22;59475;52.464;13.590;2024-02-21T12:48:37;12.81;74.82
71627;DHT22;59475;52.464;13.590;2024-02-21T12:51:03;12.61;75.65
71627;DHT22;59475;52.464;13.590;2024-02-21T12:53:29;12.45;76.33
71627;DHT22;59475;52.464;13.590;2024-02-21T12:55:55;12.30;76.45
71627;DHT22;59475;52.464;13.590;2024-02-21T12:58:21;12.25;76.89
71627;DHT22;59475;52.464;13.590;2024-02-21T13:00:47;12.14;77.50
71627;DHT22;59475;52.464;13.590;2024-02-21T13:03:13;12.08;77.33
71627;DHT22;59475;52.464;13.590;2024-02-21T13:05:39;12.05;77.81
71627;DHT22;59475;52.464;13.590;2024-02-21T13:08:09;11.92;77.80
71627;DHT22;59475;52.464;13.590;2024-02-21T13:10:34;11.69;78.26
71627;DHT22;59475;52.464;13.590;2024-02-21T13:13:02;11.70;78.48
71627;DHT22;59475;52.464;13.590;2024-02-21T13:15:28;11.70;78.85
71627;DHT22;59475;52.464;13.590;2024-02-21T13:17:55;11.73;78.40
71627;DHT22;59475;52.464;13.590;2024-02-21T13:20:21;11.84;78.74
71627;DHT22;59475;52.464;13.590;2024-02-21T13:22:46;11.85;78.45
71627;DHT22;59475;52.464;13.590;2024-02-21T13:25:12;11.84;78.37
71627;DHT22;59475;52.464;13.590;2024-02-21T13:27:41;11.78;78.64
71627;DHT22;59475;52.464;13.590;2024-02-21T13:30:07;11.70;78.55
71627;DHT22;59475;52.464;13.590;2024-02-21T13:32:34;11.84;78.35
71627;DHT22;59475;52.464;13.590;2024-02-21T13:34:59;12.01;78.14
71627;DHT22;59475;52.464;13.590;2024-02-21T13:37:26;12.05;77.71
71627;DHT22;59475;52.464;13.590;2024-02-21T13:39:52;12.12;77.04
71627;DHT22;59475;52.464;13.590;2024-02-21T13:42:17;12.09;77.20
71627;DHT22;59475;52.464;13.590;2024-02-21T13:44:44;12.09;77.51
71627;DHT22;59475;52.464;13.590;2024-02-21T13:47:10;12.04;77.29
71627;DHT22;59475;52.464;13.590;2024-02-21T13:49:36;11.85;77.55
71627;DHT22;59475;52.464;13.590;2024-02-21T13:52:02;11.75;78.08
71627;DHT22;59475;52.464;13.590;2024-02-21T13:54:27;11.71;77.72
71627;DHT22;59475;52.464;13.590;2024-02-21T13:56:53;11.70;78.00
71627;DHT22;59475;52.464;13.590;2024-02-21T13:59:18;11.73;78.41
71627;DHT22;59475;52.464;13.590;2024-02-21T14:01:43;11.66;77.94
71627;DHT22;59475;52.464;13.590;2024-02-21T14:04:09;11.70;78.63
71627;DHT22;59475;52.464;13.590;2024-02-21T14:06:34;11.74;78.45
71627;DHT22;59475;52.464;13.590;2024-02-21T14:09:00;11.67;77.78
71627;DHT22;59475;52.464;13.590;2024-02-21T14:11:26;11.71;77.12
71627;DHT22;59475;52.464;13.590;2024-02-21T14:13:52;11.71;77.66
71627;DHT22;59475;52.464;13.590;2024-02-21T14:16:17;11.69;78.09
71627;DHT22;59475;52.464;13.590;2024-02-21T14:18:43;11.67;77.51
71627;DHT22;59475;52.464;13.590;2024-02-21T14:21:09;11.69;77.60
71627;DHT22;59475;52.464;13.590;2024-02-21T14:23:38;11.67;77.93
71627;DHT22;59475;52.464;13.590;2024-02-21T14:26:04;11.63;77.89
71627;DHT22;59475;52.464;13.590;2024-02-21T14:28:29;11.60;77.59
71627;DHT22;59475;52.464;13.590;2024-02-21T14:30:55;11.61;78.02
71627;DHT22;59475;52.464;13.590;2024-02-21T14:33:23;11.66;77.23
71627;DHT22;59475;52.464;13.590;2024-02-21T14:35:49;11.64;77.47
71627;DHT22;59475;52.464;13.590;2024-02-21T14:38:14;11.64;77.91
71627;DHT22;59475;52.464;13.590;2024-02-21T14:40:40;11.67;77.48
71627;DHT22;59475;52.464;13.590;2024-02-21T14:43:05;11.67;77.61
71627;DHT22;59475;52.464;13.590;2024-02-21T14:45:30;11.66;77.63
71627;DHT22;59475;52.464;13.590;2024-02-21T14:47:56;11.66;77.23
71627;DHT22;59475;52.464;13.590;2024-02-21T14:50:21;11.67;77.25
71627;DHT22;59475;52.464;13.590;2024-02-21T14:52:48;11.60;77.48
71627;DHT22;59475;52.464;13.590;2024-02-21T14:55:14;11.54;77.60
71627;DHT22;59475;52.464;13.590;2024-02-21T14:57:39;11.53;77.20
71627;DHT22;59475;52.464;13.590;2024-02-21T15:00:07;11.49;77.37
71627;DHT22;59475;52.464;13.590;2024-02-21T15:02:33;11.47;77.67
71627;DHT22;59475;52.464;13.590;2024-02-21T15:05:00;11.46;77.66
71627;DHT22;59475;52.464;13.590;2024-02-21T15:07:25;11.49;77.60
71627;DHT22;59475;52.464;13.590;2024-02-21T15:09:51;11.44;77.78
71627;DHT22;59475;52.464;13.590;2024-02-21T15:12:17;11.36;77.64
71627;DHT22;59475;52.464;13.590;2024-02-21T15:14:43;11.39;77.47
71627;DHT22;59475;52.464;13.590;2024-02-21T15:17:10;11.34;77.48
71627;DHT22;59475;52.464;13.590;2024-02-21T15:19:36;11.33;77.25